createdAt,value
2023-02-19T00:01:47.586Z,10.24
2023-02-19T00:04:24.624Z,10.21
2023-02-19T00:06:51.745Z,10.17
2023-02-19T00:09:20.086Z,10.18
2023-02-19T00:11:48.084Z,10.17
2023-02-19T00:14:20.309Z,10.18
2023-02-19T00:16:48.705Z,10.17
2023-02-19T00:19:20.491Z,10.17
2023-02-19T00:21:51.439Z,10.18
2023-02-19T00:24:19.105Z,10.16
2023-02-19T00:26:47.203Z,10.17
2023-02-19T00:29:19.460Z,10.17
2023-02-19T00:31:47.385Z,10.18
2023-02-19T00:34:14.646Z,10.11
2023-02-19T00:36:43.032Z,10.07
2023-02-19T00:39:16.029Z,10.00
2023-02-19T00:41:44.178Z,9.95
2023-02-19T00:44:13.230Z,9.91
2023-02-19T00:46:48.608Z,9.86
2023-02-19T00:49:22.465Z,9.78
2023-02-19T00:51:52.620Z,9.74
2023-02-19T00:54:22.397Z,9.68
2023-02-19T00:56:50.267Z,9.64
2023-02-19T00:59:17.814Z,9.62
2023-02-19T01:01:45.352Z,9.61
2023-02-19T01:04:13.470Z,9.60
2023-02-19T01:06:41.319Z,9.60
2023-02-19T01:09:08.521Z,9.58
2023-02-19T01:11:35.979Z,9.55
2023-02-19T01:14:03.864Z,9.58
2023-02-19T01:16:31.086Z,9.57
2023-02-19T01:18:58.930Z,9.55
2023-02-19T01:21:29.407Z,9.54
2023-02-19T01:23:58.301Z,9.54
2023-02-19T01:26:31.831Z,9.55
2023-02-19T01:29:02.304Z,9.54
2023-02-19T01:31:30.440Z,9.55
2023-02-19T01:34:01.268Z,9.54
2023-02-19T01:36:32.614Z,9.54
2023-02-19T01:39:04.040Z,9.54
2023-02-19T01:41:34.962Z,9.55
2023-02-19T01:44:12.161Z,9.55
2023-02-19T01:46:44.828Z,9.56
2023-02-19T01:49:30.286Z,9.56
2023-02-19T01:52:34.278Z,9.56
2023-02-19T01:55:04.963Z,9.56
2023-02-19T01:57:44.212Z,9.58
2023-02-19T02:00:15.240Z,9.60
2023-02-19T02:02:48.655Z,9.59
2023-02-19T02:05:36.085Z,9.60
2023-02-19T02:08:23.054Z,9.62
2023-02-19T02:10:52.663Z,9.60
2023-02-19T02:13:20.553Z,9.60
2023-02-19T02:16:24.458Z,9.61
2023-02-19T02:19:25.560Z,9.60
2023-02-19T02:22:07.669Z,9.60
2023-02-19T02:25:11.602Z,9.57
2023-02-19T02:27:53.601Z,9.57
2023-02-19T02:30:37.874Z,9.57
2023-02-19T02:33:26.428Z,9.56
2023-02-19T02:36:05.748Z,9.56
2023-02-19T02:38:38.778Z,9.53
2023-02-19T02:41:06.985Z,9.46
2023-02-19T02:43:34.369Z,9.40
2023-02-19T02:46:01.502Z,9.34
2023-02-19T02:48:46.401Z,9.30
2023-02-19T02:51:27.367Z,9.26
2023-02-19T02:54:30.640Z,9.23
2023-02-19T02:57:01.060Z,9.24
2023-02-19T02:59:39.285Z,9.24
2023-02-19T03:02:18.614Z,9.20
2023-02-19T03:05:23.227Z,9.16
2023-02-19T03:08:18.656Z,9.14
2023-02-19T03:11:24.146Z,9.12
2023-02-19T03:14:15.257Z,9.09
2023-02-19T03:17:04.404Z,9.05
2023-02-19T03:19:42.212Z,9.03
2023-02-19T03:22:21.327Z,9.02
2023-02-19T03:25:19.239Z,9.05
2023-02-19T03:27:49.579Z,9.02
2023-02-19T03:30:23.446Z,9.01
2023-02-19T03:33:22.265Z,9.01
2023-02-19T03:36:05.325Z,8.98
2023-02-19T03:38:44.561Z,8.96
2023-02-19T03:41:31.132Z,8.94
2023-02-19T03:44:17.792Z,8.92
2023-02-19T03:47:24.263Z,8.90
2023-02-19T03:50:18.257Z,8.91
2023-02-19T03:53:11.761Z,8.87
2023-02-19T03:56:11.691Z,8.85
2023-02-19T03:58:58.919Z,8.88
2023-02-19T04:01:39.533Z,8.89
2023-02-19T04:04:16.726Z,8.88
2023-02-19T04:06:53.377Z,8.89
2023-02-19T04:09:25.145Z,8.91
2023-02-19T04:12:00.114Z,8.92
2023-02-19T04:14:46.201Z,8.87
2023-02-19T04:17:22.132Z,8.92
2023-02-19T04:19:53.006Z,8.93
2023-02-19T04:22:22.739Z,8.93
2023-02-19T04:24:53.558Z,8.96
2023-02-19T04:27:20.512Z,8.96
2023-02-19T04:29:47.777Z,8.93
2023-02-19T04:32:14.951Z,8.92
2023-02-19T04:34:41.896Z,8.87
2023-02-19T04:37:08.937Z,8.84
2023-02-19T04:39:36.308Z,8.83
2023-02-19T04:42:03.974Z,8.80
2023-02-19T04:44:30.946Z,8.80
2023-02-19T04:46:57.866Z,8.75
2023-02-19T04:49:24.766Z,8.73
2023-02-19T04:51:51.735Z,8.69
2023-02-19T04:54:18.697Z,8.66
2023-02-19T04:56:45.673Z,8.63
2023-02-19T04:59:12.851Z,8.63
2023-02-19T05:01:39.875Z,8.60
2023-02-19T05:04:06.940Z,8.60
2023-02-19T05:06:34.127Z,8.57
2023-02-19T05:09:01.069Z,8.57
2023-02-19T05:11:28.088Z,8.52
2023-02-19T05:13:56.245Z,8.54
2023-02-19T05:16:23.175Z,8.52
2023-02-19T05:18:50.155Z,8.51
2023-02-19T05:21:17.142Z,8.51
2023-02-19T05:23:44.544Z,8.50
2023-02-19T05:26:19.770Z,8.50
2023-02-19T05:28:50.944Z,8.50
2023-02-19T05:31:18.984Z,8.49
2023-02-19T05:33:51.082Z,8.47
2023-02-19T05:36:21.296Z,8.45
2023-02-19T05:38:52.670Z,8.44
2023-02-19T05:41:24.179Z,8.41
2023-02-19T05:43:52.053Z,8.43
2023-02-19T05:46:22.993Z,8.43
2023-02-19T05:48:52.730Z,8.45
2023-02-19T05:51:24.471Z,8.43
2023-02-19T05:53:52.478Z,8.42
2023-02-19T05:56:36.751Z,8.39
2023-02-19T05:59:15.916Z,8.38
2023-02-19T06:01:44.118Z,8.38
2023-02-19T06:04:12.527Z,8.35
2023-02-19T06:06:40.670Z,8.35
2023-02-19T06:09:09.634Z,8.33
2023-02-19T06:11:37.790Z,8.35
2023-02-19T06:14:06.241Z,8.33
2023-02-19T06:16:34.440Z,8.34
2023-02-19T06:19:04.976Z,8.35
2023-02-19T06:21:32.224Z,8.33
2023-02-19T06:23:59.234Z,8.35
2023-02-19T06:26:26.589Z,8.35
2023-02-19T06:28:54.684Z,8.34
2023-02-19T06:31:23.467Z,8.33
2023-02-19T06:33:50.900Z,8.34
2023-02-19T06:36:22.280Z,8.34
2023-02-19T06:38:49.499Z,8.35
2023-02-19T06:41:19.521Z,8.34
2023-02-19T06:43:46.829Z,8.36
2023-02-19T06:46:14.430Z,8.36
2023-02-19T06:48:45.596Z,8.37
2023-02-19T06:51:16.161Z,8.36
2023-02-19T06:53:43.271Z,8.35
2023-02-19T06:56:27.315Z,8.35
2023-02-19T06:59:03.276Z,8.36
2023-02-19T07:01:36.926Z,8.36
2023-02-19T07:04:06.877Z,8.37
2023-02-19T07:06:35.668Z,8.37
2023-02-19T07:09:05.192Z,8.39
2023-02-19T07:11:35.240Z,8.39
2023-02-19T07:14:04.872Z,8.41
2023-02-19T07:16:34.637Z,8.42
2023-02-19T07:19:01.766Z,8.43
2023-02-19T07:21:37.975Z,8.44
2023-02-19T07:24:05.943Z,8.45
2023-02-19T07:26:33.035Z,8.47
2023-02-19T07:29:00.926Z,8.50
2023-02-19T07:31:28.782Z,8.51
2023-02-19T07:33:55.990Z,8.58
2023-02-19T07:36:25.501Z,8.66
2023-02-19T07:38:57.322Z,8.68
2023-02-19T07:41:26.248Z,8.66
2023-02-19T07:43:56.881Z,8.67
2023-02-19T07:46:24.662Z,8.70
2023-02-19T07:48:51.601Z,8.70
2023-02-19T07:51:20.358Z,8.72
2023-02-19T07:53:52.366Z,8.73
2023-02-19T07:56:20.632Z,8.74
2023-02-19T07:58:47.842Z,8.76
2023-02-19T08:01:40.560Z,8.77
2023-02-19T08:04:08.166Z,8.80
2023-02-19T08:06:35.213Z,8.81
2023-02-19T08:09:02.186Z,8.80
2023-02-19T08:11:47.750Z,8.77
2023-02-19T08:14:14.724Z,8.68
2023-02-19T08:16:52.430Z,8.67
2023-02-19T08:19:20.995Z,8.63
2023-02-19T08:21:48.181Z,8.61
2023-02-19T08:24:15.184Z,8.57
2023-02-19T08:26:42.129Z,8.58
2023-02-19T08:29:09.143Z,8.59
2023-02-19T08:31:42.235Z,8.62
2023-02-19T08:34:09.347Z,8.66
2023-02-19T08:36:36.494Z,8.81
2023-02-19T08:39:03.693Z,8.90
2023-02-19T08:41:30.727Z,8.94
2023-02-19T08:43:57.710Z,8.97
2023-02-19T08:46:24.809Z,9.01
2023-02-19T08:48:52.193Z,9.02
2023-02-19T08:51:19.174Z,9.00
2023-02-19T08:53:46.824Z,9.04
2023-02-19T08:56:17.394Z,9.05
2023-02-19T08:58:45.201Z,9.09
2023-02-19T09:01:18.594Z,9.19
2023-02-19T09:03:46.041Z,9.30
2023-02-19T09:06:17.408Z,9.34
2023-02-19T09:08:44.762Z,9.35
2023-02-19T09:11:12.671Z,9.35
2023-02-19T09:13:39.842Z,9.39
2023-02-19T09:16:07.271Z,9.48
2023-02-19T09:18:34.707Z,9.59
2023-02-19T09:21:05.038Z,9.60
2023-02-19T09:23:39.604Z,9.61
2023-02-19T09:26:09.906Z,9.68
2023-02-19T09:28:39.654Z,9.68
2023-02-19T09:31:14.557Z,9.62
2023-02-19T09:33:47.296Z,9.63
2023-02-19T09:36:18.737Z,9.55
2023-02-19T09:38:45.892Z,9.42
2023-02-19T09:41:31.975Z,9.36
2023-02-19T09:44:06.184Z,9.40
2023-02-19T09:46:52.822Z,9.39
2023-02-19T09:49:31.875Z,9.45
2023-02-19T09:52:08.003Z,9.52
2023-02-19T09:54:38.080Z,9.70
2023-02-19T09:57:13.673Z,9.97
2023-02-19T09:59:52.116Z,10.02
2023-02-19T10:02:25.697Z,9.88
2023-02-19T10:04:53.727Z,9.76
2023-02-19T10:07:51.079Z,9.74
2023-02-19T10:10:29.475Z,9.85
2023-02-19T10:13:15.218Z,10.02
2023-02-19T10:16:00.680Z,10.03
2023-02-19T10:18:37.206Z,9.95
2023-02-19T10:21:05.503Z,9.82
2023-02-19T10:23:33.370Z,9.75
2023-02-19T10:26:00.757Z,9.73
2023-02-19T10:28:34.591Z,9.75
2023-02-19T10:31:20.391Z,9.88
2023-02-19T10:33:54.201Z,9.94
2023-02-19T10:36:36.191Z,10.00
2023-02-19T10:39:23.159Z,9.97
2023-02-19T10:41:54.448Z,9.87
2023-02-19T10:44:31.990Z,9.76
2023-02-19T10:47:01.151Z,9.65
2023-02-19T10:49:40.538Z,9.46
2023-02-19T10:52:27.170Z,9.30
2023-02-19T10:55:17.272Z,9.16
2023-02-19T10:57:44.699Z,9.00
2023-02-19T11:00:30.581Z,8.84
2023-02-19T11:03:20.202Z,8.81
2023-02-19T11:06:08.309Z,8.85
2023-02-19T11:08:48.755Z,8.91
2023-02-19T11:11:37.073Z,9.03
2023-02-19T11:14:18.186Z,9.11
2023-02-19T11:16:53.183Z,9.17
2023-02-19T11:19:40.158Z,9.31
2023-02-19T11:22:41.953Z,9.56
2023-02-19T11:25:14.738Z,9.79
2023-02-19T11:28:23.007Z,9.78
2023-02-19T11:30:49.948Z,9.62
2023-02-19T11:33:16.941Z,9.58
2023-02-19T11:35:45.694Z,9.61
2023-02-19T11:38:16.697Z,9.60
2023-02-19T11:41:01.837Z,9.62
2023-02-19T11:43:47.883Z,9.64
2023-02-19T11:46:53.422Z,9.63
2023-02-19T11:49:44.422Z,9.56
2023-02-19T11:52:33.211Z,9.54
2023-02-19T11:55:30.969Z,9.47
2023-02-19T11:58:47.072Z,9.41
2023-02-19T12:01:44.546Z,9.39
2023-02-19T12:04:37.853Z,9.31
2023-02-19T12:07:23.482Z,9.29
2023-02-19T12:10:22.723Z,9.22
2023-02-19T12:13:16.228Z,9.19
2023-02-19T12:16:31.425Z,9.23
2023-02-19T12:19:17.063Z,9.28
2023-02-19T12:22:20.308Z,9.36
2023-02-19T12:25:18.637Z,9.33
2023-02-19T12:28:09.858Z,9.33
2023-02-19T12:31:23.691Z,9.40
2023-02-19T12:34:18.187Z,9.47
2023-02-19T12:37:04.747Z,9.52
2023-02-19T12:39:44.968Z,9.53
2023-02-19T12:43:00.787Z,9.49
2023-02-19T12:45:36.999Z,9.46
2023-02-19T12:48:14.812Z,9.51
2023-02-19T12:50:47.679Z,9.66
2023-02-19T12:53:40.391Z,9.77
2023-02-19T12:56:18.888Z,9.90
2023-02-19T12:59:05.243Z,9.99
2023-02-19T13:01:43.887Z,9.95
2023-02-19T13:04:41.521Z,9.98
2023-02-19T13:07:24.060Z,9.96
2023-02-19T13:09:59.234Z,9.91
2023-02-19T13:12:34.305Z,9.86
2023-02-19T13:15:14.743Z,9.87
2023-02-19T13:17:50.636Z,9.86
2023-02-19T13:20:31.494Z,9.82
2023-02-19T13:23:30.170Z,9.84
2023-02-19T13:26:18.219Z,9.90
2023-02-19T13:29:28.302Z,9.92
2023-02-19T13:32:29.307Z,9.85
2023-02-19T13:35:30.346Z,9.78
2023-02-19T13:38:03.159Z,9.64
2023-02-19T13:40:36.296Z,9.59
2023-02-19T13:43:13.845Z,9.52
2023-02-19T13:45:46.123Z,9.45
2023-02-19T13:48:33.040Z,9.43
2023-02-19T13:51:21.647Z,9.41
2023-02-19T13:53:55.962Z,9.40
2023-02-19T13:56:34.845Z,9.42
2023-02-19T13:59:11.034Z,9.41
2023-02-19T14:01:51.440Z,9.37
2023-02-19T14:04:19.902Z,9.33
2023-02-19T14:07:07.110Z,9.31
2023-02-19T14:09:37.242Z,9.30
2023-02-19T14:12:13.736Z,9.30
2023-02-19T14:14:53.227Z,9.29
2023-02-19T14:17:46.578Z,9.21
2023-02-19T14:20:16.494Z,9.13
2023-02-19T14:22:52.741Z,9.10
2023-02-19T14:25:31.792Z,9.06
2023-02-19T14:28:11.507Z,9.01
2023-02-19T14:31:17.830Z,8.98
2023-02-19T14:33:50.437Z,8.97
2023-02-19T14:36:45.144Z,8.95
2023-02-19T14:39:19.923Z,8.99
2023-02-19T14:42:15.639Z,9.01
2023-02-19T14:44:52.314Z,9.03
2023-02-19T14:47:24.556Z,9.09
2023-02-19T14:49:58.210Z,9.16
2023-02-19T14:52:36.702Z,9.21
2023-02-19T14:55:25.882Z,9.25
2023-02-19T14:57:56.761Z,9.25
2023-02-19T15:00:50.052Z,9.29
2023-02-19T15:03:37.819Z,9.25
2023-02-19T15:06:17.901Z,9.17
2023-02-19T15:08:53.449Z,9.15
2023-02-19T15:11:32.274Z,9.14
2023-02-19T15:14:03.987Z,9.15
2023-02-19T15:16:35.680Z,9.12
2023-02-19T15:19:09.299Z,9.10
2023-02-19T15:21:44.650Z,9.09
2023-02-19T15:24:16.514Z,9.09
2023-02-19T15:26:51.256Z,9.09
2023-02-19T15:29:24.950Z,9.05
2023-02-19T15:31:57.141Z,9.00
2023-02-19T15:34:32.228Z,8.96
2023-02-19T15:37:12.754Z,8.93
2023-02-19T15:39:49.673Z,8.92
2023-02-19T15:42:39.994Z,8.90
2023-02-19T15:45:40.521Z,8.86
2023-02-19T15:48:18.638Z,8.83
2023-02-19T15:50:53.514Z,8.82
2023-02-19T15:53:29.623Z,8.80
2023-02-19T15:56:11.142Z,8.78
2023-02-19T15:59:13.360Z,8.75
2023-02-19T16:01:41.017Z,8.68
2023-02-19T16:04:16.441Z,8.66
2023-02-19T16:07:03.723Z,8.63
2023-02-19T16:09:38.147Z,8.63
2023-02-19T16:12:23.976Z,8.60
2023-02-19T16:14:51.099Z,8.54
2023-02-19T16:17:27.814Z,8.53
2023-02-19T16:19:59.632Z,8.51
2023-02-19T16:22:40.795Z,8.49
2023-02-19T16:25:18.330Z,8.40
2023-02-19T16:27:45.499Z,8.20
2023-02-19T16:30:29.668Z,7.96
2023-02-19T16:33:31.944Z,7.76
2023-02-19T16:36:34.293Z,7.62
2023-02-19T16:39:08.427Z,7.49
2023-02-19T16:41:47.548Z,7.43
2023-02-19T16:44:20.710Z,7.35
2023-02-19T16:46:50.102Z,7.27
2023-02-19T16:49:17.154Z,7.20
2023-02-19T16:51:46.641Z,7.12
2023-02-19T16:54:14.164Z,7.05
2023-02-19T16:56:41.292Z,7.02
2023-02-19T16:59:10.654Z,7.01
2023-02-19T17:01:38.237Z,6.94
2023-02-19T17:04:11.074Z,6.90
2023-02-19T17:06:39.475Z,6.87
2023-02-19T17:09:08.689Z,6.84
2023-02-19T17:11:36.557Z,6.84
2023-02-19T17:14:03.974Z,6.83
2023-02-19T17:16:39.837Z,6.81
2023-02-19T17:19:14.978Z,6.81
2023-02-19T17:21:42.588Z,6.80
2023-02-19T17:24:09.609Z,6.78
2023-02-19T17:26:37.013Z,6.75
2023-02-19T17:29:07.110Z,6.74
2023-02-19T17:31:34.375Z,6.72
2023-02-19T17:34:01.464Z,6.71
2023-02-19T17:36:32.170Z,6.71
2023-02-19T17:39:04.086Z,6.69
2023-02-19T17:41:31.172Z,6.67
2023-02-19T17:43:58.134Z,6.67
2023-02-19T17:46:27.158Z,6.66
2023-02-19T17:48:54.733Z,6.66
2023-02-19T17:51:22.378Z,6.62
2023-02-19T17:53:49.777Z,6.57
2023-02-19T17:56:26.586Z,6.56
2023-02-19T17:58:55.825Z,6.50
2023-02-19T18:01:23.431Z,6.46
2023-02-19T18:03:50.810Z,6.41
2023-02-19T18:06:18.087Z,6.33
2023-02-19T18:08:53.226Z,6.29
2023-02-19T18:11:22.887Z,6.27
2023-02-19T18:13:52.144Z,6.31
2023-02-19T18:16:22.013Z,6.32
2023-02-19T18:18:49.958Z,6.30
2023-02-19T18:21:17.173Z,6.30
2023-02-19T18:23:46.031Z,6.29
2023-02-19T18:26:13.783Z,6.28
2023-02-19T18:28:41.034Z,6.29
2023-02-19T18:31:08.339Z,6.30
2023-02-19T18:33:35.604Z,6.33
2023-02-19T18:36:04.330Z,6.36
2023-02-19T18:38:31.291Z,6.37
2023-02-19T18:41:10.513Z,6.40
2023-02-19T18:43:37.524Z,6.43
2023-02-19T18:46:09.356Z,6.44
2023-02-19T18:48:37.199Z,6.43
2023-02-19T18:51:04.667Z,6.46
2023-02-19T18:53:31.598Z,6.49
2023-02-19T18:56:00.279Z,6.49
2023-02-19T18:58:28.477Z,6.48
2023-02-19T19:00:55.532Z,6.50
2023-02-19T19:03:22.514Z,6.51
2023-02-19T19:05:49.475Z,6.55
2023-02-19T19:08:16.538Z,6.57
2023-02-19T19:10:43.565Z,6.58
2023-02-19T19:13:10.554Z,6.57
2023-02-19T19:15:39.629Z,6.57
2023-02-19T19:18:07.572Z,6.57
2023-02-19T19:20:34.638Z,6.59
2023-02-19T19:23:01.658Z,6.58
2023-02-19T19:25:28.632Z,6.57
2023-02-19T19:27:56.592Z,6.55
2023-02-19T19:30:23.610Z,6.52
2023-02-19T19:32:52.472Z,6.54
2023-02-19T19:35:21.423Z,6.59
2023-02-19T19:37:49.257Z,6.60
2023-02-19T19:40:18.141Z,6.63
2023-02-19T19:42:45.526Z,6.62
2023-02-19T19:45:16.263Z,6.64
2023-02-19T19:47:43.240Z,6.66
2023-02-19T19:50:13.140Z,6.71
2023-02-19T19:52:40.356Z,6.74
2023-02-19T19:55:07.733Z,6.74
2023-02-19T19:57:34.652Z,6.71
2023-02-19T20:00:02.323Z,6.66
2023-02-19T20:02:41.668Z,6.60
2023-02-19T20:05:08.826Z,6.53
2023-02-19T20:07:36.194Z,6.47
2023-02-19T20:10:03.490Z,6.37
2023-02-19T20:12:30.478Z,6.25
2023-02-19T20:14:57.416Z,6.14
2023-02-19T20:17:27.351Z,6.01
2023-02-19T20:19:54.588Z,5.95
2023-02-19T20:22:21.573Z,5.83
2023-02-19T20:24:54.216Z,5.73
2023-02-19T20:27:23.258Z,5.66
2023-02-19T20:29:50.621Z,5.57
2023-02-19T20:32:20.606Z,5.52
2023-02-19T20:34:48.160Z,5.46
2023-02-19T20:37:15.740Z,5.42
2023-02-19T20:39:42.775Z,5.37
2023-02-19T20:42:09.793Z,5.33
2023-02-19T20:44:36.842Z,5.29
2023-02-19T20:47:04.322Z,5.28
2023-02-19T20:49:32.525Z,5.26
2023-02-19T20:52:06.399Z,5.25
2023-02-19T20:54:35.319Z,5.22
2023-02-19T20:57:05.541Z,5.23
2023-02-19T20:59:38.647Z,5.21
2023-02-19T21:02:17.438Z,5.19
2023-02-19T21:04:44.458Z,5.16
2023-02-19T21:07:11.465Z,5.13
2023-02-19T21:09:38.485Z,5.11
2023-02-19T21:12:05.769Z,5.09
2023-02-19T21:14:32.896Z,5.07
2023-02-19T21:17:00.707Z,5.06
2023-02-19T21:19:27.690Z,5.01
2023-02-19T21:21:54.713Z,4.96
2023-02-19T21:24:22.175Z,4.96
2023-02-19T21:26:49.297Z,4.94
2023-02-19T21:29:20.476Z,4.90
2023-02-19T21:31:55.013Z,4.88
2023-02-19T21:34:27.512Z,4.83
2023-02-19T21:36:55.754Z,4.81
2023-02-19T21:39:25.713Z,4.81
2023-02-19T21:41:53.000Z,4.80
2023-02-19T21:44:21.231Z,4.77
2023-02-19T21:46:48.765Z,4.78
2023-02-19T21:49:16.022Z,4.77
2023-02-19T21:51:45.597Z,4.77
2023-02-19T21:54:24.669Z,4.78
2023-02-19T21:56:53.264Z,4.79
2023-02-19T21:59:22.642Z,4.78
2023-02-19T22:01:50.552Z,4.77
2023-02-19T22:04:20.822Z,4.75
2023-02-19T22:06:47.885Z,4.74
2023-02-19T22:09:15.675Z,4.69
2023-02-19T22:11:42.942Z,4.68
2023-02-19T22:14:10.059Z,4.67
2023-02-19T22:16:37.197Z,4.65
2023-02-19T22:19:04.795Z,4.64
2023-02-19T22:21:32.603Z,4.63
2023-02-19T22:24:02.663Z,4.60
2023-02-19T22:26:35.291Z,4.59
2023-02-19T22:29:07.160Z,4.56
2023-02-19T22:31:35.897Z,4.54
2023-02-19T22:34:04.057Z,4.52
2023-02-19T22:36:33.840Z,4.51
2023-02-19T22:39:01.660Z,4.51
2023-02-19T22:41:29.186Z,4.51
2023-02-19T22:43:58.498Z,4.53
2023-02-19T22:46:30.189Z,4.50
2023-02-19T22:48:58.475Z,4.49
2023-02-19T22:51:25.974Z,4.48
2023-02-19T22:53:56.230Z,4.45
2023-02-19T22:56:27.066Z,4.44
2023-02-19T22:58:58.023Z,4.42
2023-02-19T23:01:25.796Z,4.40
2023-02-19T23:03:59.040Z,4.38
2023-02-19T23:06:33.240Z,4.35
2023-02-19T23:09:10.552Z,4.34
2023-02-19T23:11:39.144Z,4.32
2023-02-19T23:14:07.815Z,4.32
2023-02-19T23:16:38.032Z,4.34
2023-02-19T23:19:12.809Z,4.36
2023-02-19T23:21:43.069Z,4.35
2023-02-19T23:24:13.400Z,4.34
2023-02-19T23:26:52.196Z,4.35
2023-02-19T23:29:25.684Z,4.35
2023-02-19T23:31:54.480Z,4.35
2023-02-19T23:34:22.108Z,4.36
2023-02-19T23:36:51.135Z,4.38
2023-02-19T23:39:21.492Z,4.38
2023-02-19T23:41:57.331Z,4.42
2023-02-19T23:44:25.579Z,4.43
2023-02-19T23:46:52.661Z,4.46
2023-02-19T23:49:20.353Z,4.48
2023-02-19T23:51:47.796Z,4.48
2023-02-19T23:54:15.686Z,4.50
2023-02-19T23:56:43.008Z,4.50
2023-02-19T23:59:10.071Z,4.53
